Latest Weather Observations for Parafield

IDS60801

Issued at 6:02 pm CST Monday 4 May 2015 (issued every 30 minutes, with the page automatically refreshed every 10 minutes)

About weather observations | Map of weather stations | Latest weather observations for SA | Other Formats
Station Details ID: 023013 Name: PARAFIELD AIRPORT Lat: -34.80 Lon: 138.63 Height: 9.5 m
Data from the previous 72 hours. | See also: Recent months at Parafield
Date/Time
CST
Temp
°C
App
Temp
°C
Dew
Point
Rel
Hum
%
Delta-T
°C
Wind Press
QNH
hPa
Press
MSL
hPa
Rain
since 9 am
mm
Dir
 
Spd
km/h
Gust
km/h
Spd
kts
Gust
kts
04/06:00pm 24.2 18.6 3.5 26 10.1 NNW 22 35 12 19 1004.0 1004.0 0.0
04/05:30pm 24.4 18.7 3.1 25 10.4 N 22 32 12 17 1003.8 1003.8 0.0
04/05:00pm 24.8 18.7 2.9 24 10.6 N 24 32 13 17 1003.8 1003.8 0.0
04/04:30pm 25.5 18.9 2.2 22 11.3 N 26 39 14 21 1003.9 1003.9 0.0
04/04:00pm 26.0 18.0 0.6 19 11.9 NNW 32 50 17 27 1004.2 1004.2 0.0
04/03:52pm 26.4 18.4 0.2 18 12.2 NNW 32 50 17 27 1004.0 1004.0 0.0
04/03:30pm 27.3 18.3 0.1 17 12.8 NNW 37 54 20 29 1003.7 1003.7 0.0
04/03:14pm 27.6 20.1 1.2 18 12.7 NNW 30 48 16 26 1003.8 1003.8 0.0
04/03:00pm 27.5 21.1 3.2 21 12.1 N 26 39 14 21 1003.7 1003.7 0.0
04/02:30pm 26.4 18.9 3.6 23 11.4 N 32 43 17 23 1004.1 1004.1 0.0
04/02:00pm 26.2 18.7 3.4 23 11.3 N 32 54 17 29 1004.7 1004.7 0.0
04/01:47pm 26.3 19.5 2.9 22 11.5 N 28 52 15 28 1005.0 1005.0 0.0
04/01:30pm 25.8 19.2 4.3 25 10.8 N 28 44 15 24 1005.6 1005.6 0.0
04/01:00pm 24.4 17.8 4.2 27 10.0 N 28 37 15 20 1006.2 1006.2 0.0
04/12:30pm 24.6 16.6 3.8 26 10.3 N 35 46 19 25 1007.3 1007.3 0.0
04/12:00pm 24.8 17.3 3.5 25 10.5 N 32 43 17 23 1008.3 1008.3 0.0
04/11:34am 23.9 16.4 3.2 26 10.0 N 32 54 17 29 1008.4 1008.4 0.0
04/11:30am 24.2 17.4 5.1 29 9.6 N 30 44 16 24 1008.4 1008.4 0.0
04/11:00am 22.3 16.3 5.3 33 8.5 NNE 26 43 14 23 1009.2 1009.2 0.0
04/10:30am 22.1 16.4 5.1 33 8.4 N 24 35 13 19 1010.0 1010.0 0.0
04/10:00am 21.2 15.5 5.1 35 7.9 NNE 24 35 13 19 1010.0 1010.0 0.0
04/09:30am 20.6 15.8 5.8 38 7.4 NNE 20 32 11 17 1010.6 1010.6 0.0
04/09:00am 20.0 14.8 5.6 39 7.1 NNE 22 30 12 16 1010.8 1010.8 0.0
04/08:30am 20.2 15.4 5.8 39 7.1 NNE 20 30 11 16 1011.2 1011.2 0.0
04/08:00am 18.4 14.1 6.9 47 5.8 NNE 19 24 10 13 1011.2 1011.2 0.0
04/07:30am 17.4 12.9 6.9 50 5.2 NNE 20 26 11 14 1011.3 1011.3 0.0
04/07:00am 15.2 11.4 7.7 61 3.7 NE 17 20 9 11 1011.6 1011.6 0.0
04/06:30am 14.7 11.7 7.5 62 3.6 NNE 13 17 7 9 1011.8 1011.8 0.0
04/06:00am 14.2 10.8 7.7 65 3.2 NE 15 19 8 10 1011.9 1011.9 0.0
04/05:30am 13.6 10.2 7.6 67 2.9 NE 15 17 8 9 1012.2 1012.2 0.0
04/05:00am 13.5 9.7 7.7 68 2.9 NE 17 20 9 11 1012.3 1012.3 0.0
04/04:30am 13.6 10.8 6.9 64 3.2 NE 11 15 6 8 1012.7 1012.7 0.0
04/04:00am 16.1 12.3 7.6 57 4.2 NNE 17 22 9 12 1012.8 1012.8 0.0
04/03:30am 15.3 12.0 8.1 62 3.6 NNE 15 20 8 11 1012.9 1012.9 0.0
04/03:00am 15.3 12.1 8.3 63 3.5 NE 15 17 8 9 1013.1 1013.1 0.0
04/02:30am 15.2 12.4 8.4 64 3.4 NE 13 17 7 9 1013.6 1013.6 0.0
04/02:00am 16.1 12.6 8.8 62 3.7 NE 17 22 9 12 1013.7 1013.7 0.0
04/01:30am 16.4 13.0 9.1 62 3.8 NE 17 20 9 11 1014.1 1014.1 0.0
04/01:00am 16.8 13.0 9.2 61 3.9 NE 19 28 10 15 1014.3 1014.3 0.0
04/12:30am 16.3 12.6 9.3 63 3.6 NE 19 24 10 13 1014.4 1014.4 0.0
04/12:00am 15.8 11.8 9.2 65 3.4 NE 20 24 11 13 1014.5 1014.5 0.0
 
Date/Time
CST
Temp
°C
App
Temp
°C
Dew
Point
Rel
Hum
%
Delta-T
°C
Wind Press
QNH
hPa
Press
MSL
hPa
Rain
since 9 am
mm
Dir
 
Spd
km/h
Gust
km/h
Spd
kts
Gust
kts
03/11:30pm 15.3 11.5 9.2 67 3.1 NE 19 20 10 11 1014.8 1014.8 0.0
03/11:00pm 15.5 11.8 9.4 67 3.1 NE 19 22 10 12 1015.5 1015.5 0.0
03/10:30pm 15.2 11.3 9.3 68 3.0 NE 20 24 11 13 1015.8 1015.8 0.0
03/10:00pm 14.7 11.7 9.3 70 2.8 NE 15 20 8 11 1016.1 1016.1 0.0
03/09:30pm 14.8 11.4 9.0 68 3.0 NE 17 20 9 11 1016.3 1016.3 0.0
03/09:00pm 13.3 10.5 8.6 73 2.3 NE 13 17 7 9 1016.4 1016.4 0.0
03/08:30pm 12.6 10.1 8.3 75 2.1 NE 11 13 6 7 1016.6 1016.6 0.0
03/08:00pm 13.1 11.0 8.4 73 2.3 NE 9 11 5 6 1017.2 1017.2 0.0
03/07:30pm 13.5 11.9 7.9 69 2.8 E 6 7 3 4 1017.2 1017.2 0.0
03/07:00pm 13.5 13.1 8.1 70 2.7 CALM 0 6 0 3 1017.0 1017.0 0.0
03/06:30pm 14.1 12.4 8.3 68 2.9 ESE 7 9 4 5 1016.6 1016.6 0.0
03/06:00pm 16.0 14.2 8.0 59 4.0 SE 7 7 4 4 1016.7 1016.7 0.0
03/05:30pm 17.1 14.9 8.0 55 4.6 SE 9 9 5 5 1016.7 1016.7 0.0
03/05:00pm 17.7 17.4 8.6 55 4.7 CALM 0 0 0 0 1016.9 1016.9 0.0
03/04:30pm 18.8 17.2 7.9 49 5.6 SSE 6 7 3 4 1017.1 1017.1 0.0
03/04:00pm 19.2 17.2 8.5 50 5.6 S 9 13 5 7 1017.0 1017.0 0.0
03/03:30pm 18.8 16.8 8.5 51 5.3 WSW 9 13 5 7 1017.2 1017.2 0.0
03/03:00pm 19.0 16.0 7.8 48 5.7 W 13 17 7 9 1017.5 1017.5 0.0
03/02:30pm 19.1 16.3 8.7 51 5.4 W 13 20 7 11 1017.7 1017.7 0.0
03/02:00pm 19.4 17.8 8.7 50 5.6 NW 7 15 4 8 1017.8 1017.8 0.0
03/01:30pm 19.2 17.5 8.2 49 5.7 NW 7 13 4 7 1018.3 1018.3 0.0
03/01:00pm 19.2 17.8 9.4 53 5.2 NNW 7 15 4 8 1018.6 1018.6 0.0
03/12:30pm 18.9 16.8 9.7 55 4.9 NW 11 17 6 9 1019.1 1019.1 0.0
03/12:00pm 18.9 17.2 9.9 56 4.8 WNW 9 20 5 11 1019.5 1019.5 0.0
03/11:30am 18.6 17.4 10.2 58 4.5 N 7 11 4 6 1020.0 1020.0 0.0
03/11:00am 17.2 16.3 11.2 68 3.2 NW 7 13 4 7 1020.6 1020.6 0.0
03/10:30am 16.8 15.5 11.3 70 3.0 N 9 13 5 7 1020.9 1020.9 0.0
03/10:00am 17.2 16.1 12.1 72 2.8 NNE 9 13 5 7 1021.1 1021.1 0.0
03/09:30am 15.8 14.3 11.8 77 2.2 NNE 11 13 6 7 1021.0 1021.0 0.0
03/09:00am 15.0 13.9 11.8 81 1.7 NE 9 13 5 7 1021.0 1021.0 0.0
03/08:30am 14.0 12.8 11.5 85 1.3 ENE 9 13 5 7 1021.2 1021.2 0.0
03/08:21am 13.7 12.1 11.6 87 1.1 ENE 11 15 6 8 1021.1 1021.1 0.0
03/08:00am 13.2 11.6 11.4 89 1.0 NE 11 13 6 7 1021.0 1021.0 0.0
03/07:43am 12.9 12.1 11.8 93 0.6 ENE 7 11 4 6 1020.7 1020.7 0.0
03/07:34am 11.9 10.8 10.8 93 0.6 ENE 7 9 4 5 1020.6 1020.6 0.0
03/07:30am 11.8 10.3 10.7 93 0.6 ENE 9 9 5 5 1020.5 1020.5 0.0
03/07:00am 13.2 12.8 12.3 94 0.5 NNE 6 9 3 5 1020.3 1020.3 0.0
03/06:30am 13.1 12.1 12.2 94 0.5 N 9 13 5 7 1020.2 1020.2 0.0
03/06:00am 11.9 10.5 10.8 93 0.6 NE 9 11 5 6 1019.9 1019.9 0.0
03/05:30am 12.8 10.9 11.9 94 0.5 NE 13 19 7 10 1019.9 1019.9 0.0
03/05:00am 12.6 11.5 11.8 95 0.4 NNE 9 11 5 6 1019.9 1019.9 0.0
03/04:30am 12.2 10.9 11.4 95 0.4 NE 9 13 5 7 1019.6 1019.6 0.0
03/04:00am 12.6 11.5 11.8 95 0.4 NNE 9 13 5 7 1019.5 1019.5 0.0
03/03:30am 12.0 9.9 11.2 95 0.4 NNE 13 17 7 9 1019.3 1019.3 0.0
03/03:01am 11.1 10.5 10.3 95 0.4 S 4 7 2 4 1019.5 1019.5 0.0
03/03:00am 10.9 10.2 10.1 95 0.4 SSW 4 7 2 4 1019.5 1019.5 0.0
03/02:50am 10.2 8.4 9.3 94 0.4 N 9 11 5 6 1019.4 1019.4 0.0
03/02:30am 9.4 8.6 8.3 93 0.5 NNE 2 6 1 3 1019.3 1019.3 0.0
03/02:27am 8.8 7.9 7.6 92 0.6 NNE 2 6 1 3 1019.2 1019.2 0.0
03/02:26am 8.9 7.6 7.7 92 0.6 NNE 4 6 2 3 1019.2 1019.2 0.0
03/02:09am 10.7 9.5 9.6 93 0.6 NNE 6 7 3 4 1019.4 1019.4 0.0
03/02:00am 11.1 9.9 10.2 94 0.5 NE 7 9 4 5 1019.4 1019.4 0.0
03/01:30am 11.1 9.4 10.0 93 0.6 NE 9 11 5 6 1019.5 1019.5 0.0
03/01:00am 11.3 10.2 10.0 92 0.7 ENE 6 9 3 5 1019.7 1019.7 0.0
03/12:30am 12.1 10.6 10.5 90 0.8 N 9 9 5 5 1019.8 1019.8 0.0
03/12:00am 11.7 10.7 10.3 91 0.7 N 6 7 3 4 1019.8 1019.8 0.0
 
Date/Time
CST
Temp
°C
App
Temp
°C
Dew
Point
Rel
Hum
%
Delta-T
°C
Wind Press
QNH
hPa
Press
MSL
hPa
Rain
since 9 am
mm
Dir
 
Spd
km/h
Gust
km/h
Spd
kts
Gust
kts
02/11:30pm 12.1 10.3 10.7 91 0.7 NNE 11 13 6 7 1019.9 1019.9 0.0
02/11:00pm 12.7 11.4 11.4 92 0.7 NE 9 9 5 5 1020.1 1020.1 0.0
02/10:30pm 11.8 9.9 10.5 92 0.7 NE 11 13 6 7 1020.4 1020.4 0.0
02/10:00pm 11.6 10.5 10.0 90 0.8 NE 6 7 3 4 1020.1 1020.1 0.0
02/09:30pm 11.0 9.6 9.4 90 0.8 N 7 9 4 5 1019.8 1019.8 0.0
02/09:00pm 11.3 11.2 9.4 88 1.0 CALM 0 0 0 0 1019.4 1019.4 0.0
02/08:30pm 11.1 10.6 9.4 89 0.8 SW 2 7 1 4 1019.1 1019.1 0.0
02/08:00pm 12.8 13.0 10.5 86 1.2 CALM 0 6 0 3 1019.1 1019.1 0.0
02/07:30pm 12.6 11.5 10.1 85 1.3 SSE 6 6 3 3 1019.0 1019.0 0.0
02/07:00pm 14.8 14.8 11.2 79 1.9 SE 2 6 1 3 1019.0 1019.0 0.0
02/06:30pm 14.2 12.3 10.6 79 1.9 SSW 11 15 6 8 1018.8 1018.8 0.0
02/06:00pm 15.0 13.2 10.8 76 2.2 SW 11 15 6 8 1018.3 1018.3 0.0
02/05:30pm 16.4 14.3 11.1 71 2.8 SW 13 17 7 9 1018.2 1018.2 0.0
02/05:00pm 17.5 14.5 11.8 69 3.1 SW 19 24 10 13 1017.9 1017.9 0.0
02/04:30pm 18.5 15.4 12.3 67 3.4 W 20 28 11 15 1017.9 1017.9 0.0
02/04:00pm 19.2 15.7 11.0 59 4.5 W 20 28 11 15 1018.0 1018.0 0.0
02/03:30pm 19.6 15.6 10.3 55 5.0 WNW 22 30 12 16 1017.9 1017.9 0.0
02/03:00pm 19.9 16.5 10.6 55 5.0 WNW 19 26 10 14 1017.8 1017.8 0.0
02/02:30pm 19.9 16.6 10.9 56 4.9 W 19 24 10 13 1017.7 1017.7 0.0
02/02:00pm 19.8 16.8 10.5 55 5.0 W 17 26 9 14 1017.6 1017.6 0.0
02/01:30pm 19.9 16.8 10.3 54 5.2 WNW 17 26 9 14 1017.8 1017.8 0.0
02/01:00pm 20.0 16.2 9.9 52 5.4 NW 20 28 11 15 1018.0 1018.0 0.0
02/12:30pm 20.1 16.9 9.9 52 5.5 W 17 24 9 13 1018.3 1018.3 0.0
02/12:00pm 20.0 17.2 11.5 58 4.7 WNW 17 24 9 13 1018.8 1018.8 0.0
02/11:30am 18.5 16.4 12.3 67 3.4 WNW 15 22 8 12 1019.0 1019.0 0.0
02/11:00am 18.6 16.3 11.7 64 3.8 WNW 15 22 8 12 1019.0 1019.0 0.0
02/10:30am 18.3 16.2 9.9 58 4.4 NW 11 19 6 10 1019.0 1019.0 0.0
02/10:00am 17.1 14.4 9.0 59 4.2 NNW 13 20 7 11 1019.2 1019.2 0.0
02/09:30am 16.9 13.7 8.3 57 4.4 NNW 15 19 8 10 1019.3 1019.3 0.0
02/09:00am 16.1 13.1 7.8 58 4.2 N 13 19 7 10 1019.3 1019.3 0.0
02/08:30am 15.6 12.1 7.4 58 4.1 N 15 19 8 10 1019.0 1019.0 0.0
02/08:00am 15.3 12.4 8.1 62 3.6 NNE 13 17 7 9 1018.5 1018.5 0.0
02/07:30am 14.9 12.1 8.4 65 3.3 NNE 13 17 7 9 1018.0 1018.0 0.0
02/07:00am 14.6 11.4 8.5 67 3.1 NNE 15 20 8 11 1017.6 1017.6 0.0
02/06:30am 14.4 11.2 8.4 67 3.0 N 15 22 8 12 1017.4 1017.4 0.0
02/06:00am 15.1 11.2 8.8 66 3.2 NNE 19 22 10 12 1017.0 1017.0 0.0
02/05:30am 15.1 12.1 9.2 68 3.0 NNE 15 19 8 10 1017.4 1017.4 0.0
02/05:00am 15.4 12.7 8.9 65 3.3 N 13 17 7 9 1017.4 1017.4 0.0
02/04:30am 15.5 12.4 9.0 65 3.3 N 15 19 8 10 1017.1 1017.1 0.0
02/04:00am 15.5 12.5 9.2 66 3.2 N 15 20 8 11 1017.1 1017.1 0.0
02/03:30am 15.4 12.8 9.3 67 3.1 N 13 15 7 8 1017.0 1017.0 0.0
02/03:00am 15.6 13.3 9.1 65 3.3 NNW 11 15 6 8 1017.3 1017.3 0.0
02/02:30am 16.2 13.2 9.2 63 3.6 N 15 20 8 11 1017.3 1017.3 0.0
02/02:00am 16.3 13.4 9.7 65 3.4 N 15 19 8 10 1017.3 1017.3 0.0
02/01:30am 16.5 13.6 9.7 64 3.5 N 15 19 8 10 1017.5 1017.5 0.0
02/01:00am 16.5 13.7 9.9 65 3.5 N 15 20 8 11 1017.3 1017.3 0.0
02/12:30am 16.6 14.2 10.0 65 3.5 N 13 17 7 9 1017.3 1017.3 0.0
02/12:00am 16.6 13.7 9.8 64 3.6 N 15 19 8 10 1017.5 1017.5 0.0
 
Date/Time
CST
Temp
°C
App
Temp
°C
Dew
Point
Rel
Hum
%
Delta-T
°C
Wind Press
QNH
hPa
Press
MSL
hPa
Rain
since 9 am
mm
Dir
 
Spd
km/h
Gust
km/h
Spd
kts
Gust
kts
01/11:30pm 17.3 14.1 10.0 62 3.8 NNE 17 20 9 11 1017.1 1017.1 0.0
01/11:00pm 16.8 14.2 9.2 61 3.9 NNE 13 15 7 8 1017.8 1017.8 0.0
01/10:30pm 17.7 14.2 8.8 56 4.6 NNE 17 20 9 11 1017.8 1017.8 0.0
01/10:00pm 18.1 14.3 8.9 55 4.8 NNE 19 20 10 11 1018.0 1018.0 0.0
01/09:30pm 17.2 14.5 9.1 59 4.2 NNE 13 17 7 9 1018.3 1018.3 0.0
01/09:00pm 16.8 14.3 9.7 63 3.7 NE 13 17 7 9 1018.0 1018.0 0.0
01/08:30pm 16.3 13.9 10.2 67 3.2 NNE 13 15 7 8 1018.5 1018.5 0.0
01/08:00pm 15.6 14.1 10.4 71 2.7 NNE 9 11 5 6 1018.6 1018.6 0.0
01/07:30pm 16.6 14.9 10.0 65 3.5 NNE 9 11 5 6 1018.5 1018.5 0.0
01/07:00pm 16.2 14.9 10.1 67 3.2 NNE 7 9 4 5 1018.5 1018.5 0.0
01/06:30pm 17.4 15.6 9.6 60 4.1 N 9 13 5 7 1018.6 1018.6 0.0

Other Formats:

Comma delimited format used in spreadsheet applications
http://www.bom.gov.au/fwo/IDS60801/IDS60801.95677.axf

JavaScript Object Notation format (JSON) in row-major order
http://www.bom.gov.au/fwo/IDS60801/IDS60801.95677.json